Time;durP1;ratioP1;P1;durP2;ratioP2;P2;SDS_P1;SDS_P2;PMS_P1;PMS_P2;Temp;Humidity;BMP_temperature;BMP_pressure;BME280_temperature;BME280_humidity;BME280_pressure;Samples;Min_cycle;Max_cycle;Signal;HPM_P1;HPM_P2
2022/05/06 00:00:11;;;;;;;;;;;11.20;75.20;;;;;;5035429;28;20373;-76
2022/05/06 00:02:37;;;;;;;;;;;11.20;75.60;;;;;;5050238;28;20003;-76
2022/05/06 00:05:03;;;;;;;;;;;11.30;75.70;;;;;;5047844;28;19992;-75
2022/05/06 00:07:28;;;;;;;;;;;11.20;76.00;;;;;;5051165;28;20508;-77
2022/05/06 00:09:54;;;;;;;;;;;11.20;76.20;;;;;;5050241;28;19912;-77
2022/05/06 00:12:19;;;;;;;;;;;11.20;76.10;;;;;;5049606;28;19921;-76
2022/05/06 00:14:46;;;;;;;;;;;11.20;75.40;;;;;;5039822;28;19916;-77
2022/05/06 00:17:11;;;;;;;;;;;11.20;75.30;;;;;;5050700;28;19913;-77
2022/05/06 00:19:37;;;;;;;;;;;11.10;75.30;;;;;;5069111;22;19943;-78
2022/05/06 00:22:02;;;;;;;;;;;11.10;75.40;;;;;;5059636;28;19964;-78
2022/05/06 00:24:31;;;;;;;;;;;11.10;75.50;;;;;;5041104;28;19913;-77
2022/05/06 00:26:57;;;;;;;;;;;11.00;75.50;;;;;;5054723;28;20023;-78
2022/05/06 00:29:23;;;;;;;;;;;11.00;75.70;;;;;;5051599;28;20394;-78
2022/05/06 00:31:48;;;;;;;;;;;11.00;76.60;;;;;;5052003;28;19967;-78
2022/05/06 00:34:13;;;;;;;;;;;11.00;76.50;;;;;;5050517;28;19921;-78
2022/05/06 00:36:39;;;;;;;;;;;11.10;76.30;;;;;;5049892;28;19913;-78
2022/05/06 00:39:05;;;;;;;;;;;11.10;76.10;;;;;;5057815;28;19928;-78
2022/05/06 00:41:34;;;;;;;;;;;11.00;76.40;;;;;;5032398;28;19999;-78
2022/05/06 00:43:59;;;;;;;;;;;11.00;76.60;;;;;;5046358;28;19940;-78
2022/05/06 00:46:25;;;;;;;;;;;10.90;76.10;;;;;;5051261;28;19921;-79
2022/05/06 00:48:50;;;;;;;;;;;10.80;76.20;;;;;;5028700;28;20332;-77
2022/05/06 00:51:18;;;;;;;;;;;10.80;76.10;;;;;;5028396;28;19992;-79
2022/05/06 00:53:44;;;;;;;;;;;10.70;76.20;;;;;;5037271;28;19958;-78
2022/05/06 00:56:12;;;;;;;;;;;10.90;75.70;;;;;;5048777;28;19920;-78
2022/05/06 00:58:38;;;;;;;;;;;10.80;75.90;;;;;;5052312;28;19916;-79
2022/05/06 01:01:04;;;;;;;;;;;10.80;76.00;;;;;;5034014;28;19916;-78
2022/05/06 01:03:30;;;;;;;;;;;10.70;76.00;;;;;;5050487;28;20007;-78
2022/05/06 01:05:56;;;;;;;;;;;10.60;76.20;;;;;;5046410;28;19913;-78
2022/05/06 01:08:21;;;;;;;;;;;10.60;76.40;;;;;;5042465;28;19908;-78
2022/05/06 01:10:48;;;;;;;;;;;10.60;76.50;;;;;;5032496;28;19978;-78
2022/05/06 01:13:13;;;;;;;;;;;10.50;76.60;;;;;;5028827;28;19959;-78
2022/05/06 01:15:39;;;;;;;;;;;10.40;76.50;;;;;;5034589;28;19916;-76
2022/05/06 01:18:04;;;;;;;;;;;10.40;76.50;;;;;;5052516;28;19932;-78
2022/05/06 01:20:30;;;;;;;;;;;10.30;76.60;;;;;;5044340;28;19921;-78
2022/05/06 01:22:58;;;;;;;;;;;10.30;77.20;;;;;;5050930;28;20271;-78
2022/05/06 01:25:24;;;;;;;;;;;10.20;77.60;;;;;;5035255;28;19921;-78
2022/05/06 01:27:55;;;;;;;;;;;10.30;77.30;;;;;;5048184;28;19917;-78
2022/05/06 01:30:30;;;;;;;;;;;10.20;77.30;;;;;;5035622;28;19959;-78
2022/05/06 01:32:56;;;;;;;;;;;10.20;77.50;;;;;;5051449;28;20040;-78
2022/05/06 01:35:22;;;;;;;;;;;10.20;77.80;;;;;;5028155;28;19939;-78
2022/05/06 01:37:49;;;;;;;;;;;10.20;78.00;;;;;;5036781;28;20371;-78
2022/05/06 01:40:17;;;;;;;;;;;10.30;77.60;;;;;;5048595;28;20015;-78
2022/05/06 01:42:43;;;;;;;;;;;10.30;77.40;;;;;;5044849;28;19924;-78
2022/05/06 01:45:10;;;;;;;;;;;10.20;77.30;;;;;;5027199;28;19932;-78
2022/05/06 01:47:38;;;;;;;;;;;10.10;77.10;;;;;;5025675;28;19952;-79
2022/05/06 01:50:04;;;;;;;;;;;10.10;77.10;;;;;;5027142;28;19955;-78
2022/05/06 01:52:30;;;;;;;;;;;10.10;77.30;;;;;;5027639;28;19921;-78
2022/05/06 01:54:56;;;;;;;;;;;10.00;77.30;;;;;;5043296;28;19913;-79
2022/05/06 01:57:21;;;;;;;;;;;10.00;77.40;;;;;;5048552;28;19982;-78
2022/05/06 01:59:47;;;;;;;;;;;9.90;77.70;;;;;;5026515;28;19923;-78
2022/05/06 02:02:12;;;;;;;;;;;9.80;77.70;;;;;;5035110;28;19932;-78
2022/05/06 02:07:22;;;;;;;;;;;9.70;77.90;;;;;;5046668;28;19935;-79
2022/05/06 02:09:47;;;;;;;;;;;9.60;78.00;;;;;;5044953;28;20386;-78
2022/05/06 02:12:13;;;;;;;;;;;9.70;78.00;;;;;;5030447;28;19995;-79
2022/05/06 02:14:38;;;;;;;;;;;9.70;78.30;;;;;;5027459;28;19920;-79
2022/05/06 02:17:04;;;;;;;;;;;9.90;78.10;;;;;;5047492;28;19971;-78
2022/05/06 02:19:29;;;;;;;;;;;9.90;77.90;;;;;;5050091;28;19994;-79
2022/05/06 02:21:54;;;;;;;;;;;10.00;77.60;;;;;;5049435;28;19917;-79
2022/05/06 02:24:20;;;;;;;;;;;10.00;78.50;;;;;;5049408;28;19920;-78
2022/05/06 02:26:46;;;;;;;;;;;10.00;78.30;;;;;;5049285;28;19917;-78
2022/05/06 02:29:11;;;;;;;;;;;10.10;78.20;;;;;;5048711;28;19913;-78
2022/05/06 02:34:21;;;;;;;;;;;9.90;78.20;;;;;;5050456;28;19932;-78
2022/05/06 02:36:47;;;;;;;;;;;9.80;78.00;;;;;;5046765;28;19936;-78
2022/05/06 02:39:12;;;;;;;;;;;9.80;78.30;;;;;;5024820;28;20300;-78
2022/05/06 02:41:38;;;;;;;;;;;9.80;78.20;;;;;;5049126;28;19920;-78
2022/05/06 02:44:04;;;;;;;;;;;9.70;78.20;;;;;;5050122;28;19955;-78
2022/05/06 02:46:33;;;;;;;;;;;9.80;78.50;;;;;;5054406;28;19920;-78
2022/05/06 02:48:59;;;;;;;;;;;9.80;78.10;;;;;;5050743;28;19913;-78
2022/05/06 02:51:28;;;;;;;;;;;9.90;78.40;;;;;;5049862;28;19943;-79
2022/05/06 02:53:54;;;;;;;;;;;9.90;78.50;;;;;;5046998;28;19928;-78
2022/05/06 02:56:20;;;;;;;;;;;9.80;78.70;;;;;;5049369;28;20423;-79
2022/05/06 02:58:45;;;;;;;;;;;9.80;78.90;;;;;;5047219;28;20015;-78
2022/05/06 03:01:10;;;;;;;;;;;9.80;78.90;;;;;;5031147;28;20330;-79
2022/05/06 03:03:36;;;;;;;;;;;9.70;79.00;;;;;;5029055;28;20334;-79
2022/05/06 03:06:02;;;;;;;;;;;9.70;79.00;;;;;;5045905;28;19961;-78
2022/05/06 03:08:27;;;;;;;;;;;9.70;78.90;;;;;;5049336;28;19913;-78
2022/05/06 03:10:53;;;;;;;;;;;9.60;78.90;;;;;;5032136;28;19917;-80
2022/05/06 03:13:19;;;;;;;;;;;9.60;79.10;;;;;;5033209;28;19940;-79
2022/05/06 03:15:45;;;;;;;;;;;9.50;78.70;;;;;;5057172;28;20336;-80
2022/05/06 03:18:11;;;;;;;;;;;9.60;79.10;;;;;;5045794;28;20324;-79
2022/05/06 03:20:38;;;;;;;;;;;9.50;78.90;;;;;;5028843;28;20402;-79
2022/05/06 03:23:04;;;;;;;;;;;9.50;78.80;;;;;;5041355;28;19924;-79
2022/05/06 03:25:30;;;;;;;;;;;9.40;78.70;;;;;;5049871;28;19912;-79
2022/05/06 03:27:59;;;;;;;;;;;9.30;78.90;;;;;;5042832;28;19923;-79
2022/05/06 03:30:25;;;;;;;;;;;9.30;79.00;;;;;;5048473;28;19917;-79
2022/05/06 03:32:51;;;;;;;;;;;9.20;78.70;;;;;;5046343;28;19920;-79
2022/05/06 03:35:18;;;;;;;;;;;9.10;79.30;;;;;;5046840;28;19974;-79
2022/05/06 03:37:44;;;;;;;;;;;9.10;79.50;;;;;;5040588;28;19917;-78
2022/05/06 03:40:10;;;;;;;;;;;9.00;79.50;;;;;;5062476;28;19909;-78
2022/05/06 03:42:35;;;;;;;;;;;9.00;79.60;;;;;;5055051;28;19939;-80
2022/05/06 03:45:03;;;;;;;;;;;9.00;79.80;;;;;;5057650;28;19909;-79
2022/05/06 03:47:28;;;;;;;;;;;8.90;80.20;;;;;;5032534;28;19938;-80
2022/05/06 03:52:38;;;;;;;;;;;8.90;81.10;;;;;;5046081;28;20467;-79
2022/05/06 03:55:04;;;;;;;;;;;8.90;81.20;;;;;;5027381;28;19913;-79
2022/05/06 03:57:29;;;;;;;;;;;8.90;81.20;;;;;;5031778;28;19921;-79
2022/05/06 03:59:55;;;;;;;;;;;8.80;81.40;;;;;;5056501;28;20518;-78
2022/05/06 04:02:20;;;;;;;;;;;8.90;81.00;;;;;;5048191;28;19963;-79
2022/05/06 04:04:46;;;;;;;;;;;8.90;80.80;;;;;;5047855;28;19924;-79
2022/05/06 04:07:12;;;;;;;;;;;8.90;80.60;;;;;;5047588;28;20003;-80
2022/05/06 04:09:37;;;;;;;;;;;8.90;80.30;;;;;;5050589;28;19920;-79
2022/05/06 04:12:04;;;;;;;;;;;8.90;80.20;;;;;;5044344;28;20379;-80
2022/05/06 04:14:29;;;;;;;;;;;8.80;80.10;;;;;;5054229;28;20336;-80
2022/05/06 04:16:54;;;;;;;;;;;8.80;80.10;;;;;;5049986;28;19928;-80
2022/05/06 04:19:20;;;;;;;;;;;8.80;80.00;;;;;;5042464;28;19928;-79
2022/05/06 04:24:29;;;;;;;;;;;8.80;80.10;;;;;;5048464;28;19982;-80
2022/05/06 04:26:55;;;;;;;;;;;8.80;80.30;;;;;;5045978;28;19943;-79
2022/05/06 04:29:20;;;;;;;;;;;8.80;80.40;;;;;;5050390;28;19917;-79
2022/05/06 04:31:46;;;;;;;;;;;8.80;80.50;;;;;;5029262;28;20042;-79
2022/05/06 04:34:11;;;;;;;;;;;8.90;80.50;;;;;;5050479;28;19971;-79
2022/05/06 04:36:39;;;;;;;;;;;9.00;80.40;;;;;;5063216;28;19924;-79
2022/05/06 04:39:05;;;;;;;;;;;9.10;80.30;;;;;;5044929;28;19919;-78
2022/05/06 04:41:31;;;;;;;;;;;9.10;80.40;;;;;;5064521;28;20011;-80
2022/05/06 04:43:57;;;;;;;;;;;9.10;80.30;;;;;;5049557;28;20260;-80
2022/05/06 04:46:22;;;;;;;;;;;9.20;80.60;;;;;;5053364;28;19974;-80
2022/05/06 04:48:48;;;;;;;;;;;9.30;80.50;;;;;;5057527;28;19982;-80
2022/05/06 04:51:13;;;;;;;;;;;9.40;80.40;;;;;;5037981;28;19962;-79
2022/05/06 04:53:39;;;;;;;;;;;9.50;79.70;;;;;;5029420;28;19923;-79
2022/05/06 04:56:04;;;;;;;;;;;9.40;79.40;;;;;;5030927;28;20268;-79
2022/05/06 04:58:30;;;;;;;;;;;9.50;79.50;;;;;;5050496;28;19921;-78
2022/05/06 05:00:55;;;;;;;;;;;9.60;79.60;;;;;;5050938;28;20007;-78
2022/05/06 05:03:22;;;;;;;;;;;9.60;79.70;;;;;;5028931;28;19913;-78
2022/05/06 05:05:48;;;;;;;;;;;9.80;79.60;;;;;;5051130;28;19963;-78
2022/05/06 05:08:13;;;;;;;;;;;10.00;79.70;;;;;;5026024;28;19955;-78
2022/05/06 05:10:39;;;;;;;;;;;10.10;79.20;;;;;;5052254;28;20000;-78
2022/05/06 05:13:05;;;;;;;;;;;10.40;78.60;;;;;;5048134;28;19913;-79
2022/05/06 05:15:31;;;;;;;;;;;10.50;77.80;;;;;;5039071;28;20370;-79
2022/05/06 05:17:56;;;;;;;;;;;10.70;77.10;;;;;;5049346;28;19921;-79
2022/05/06 05:20:22;;;;;;;;;;;11.00;77.50;;;;;;5033141;28;20261;-79
2022/05/06 05:22:47;;;;;;;;;;;11.30;76.70;;;;;;5049204;28;19917;-79
2022/05/06 05:25:12;;;;;;;;;;;11.60;75.80;;;;;;5033848;28;20449;-79
2022/05/06 05:27:38;;;;;;;;;;;11.60;74.90;;;;;;5032223;28;19971;-79
2022/05/06 05:30:05;;;;;;;;;;;11.80;74.90;;;;;;5053430;28;19924;-79
2022/05/06 05:32:31;;;;;;;;;;;12.10;74.00;;;;;;5041151;28;19995;-79
2022/05/06 05:34:56;;;;;;;;;;;12.50;72.80;;;;;;5031396;28;20374;-79
2022/05/06 05:37:22;;;;;;;;;;;12.80;71.30;;;;;;5046439;28;19919;-81
2022/05/06 05:39:48;;;;;;;;;;;13.00;69.80;;;;;;5065051;28;20325;-79
2022/05/06 05:42:19;;;;;;;;;;;12.70;68.80;;;;;;5047738;28;19916;-81
2022/05/06 05:50:13;;;;;;;;;;;13.20;70.00;;;;;;5053218;28;20239;-80
2022/05/06 05:52:38;;;;;;;;;;;13.70;67.10;;;;;;5051300;28;19912;-81
2022/05/06 05:55:04;;;;;;;;;;;13.90;66.40;;;;;;5034289;28;20008;-81
2022/05/06 05:57:29;;;;;;;;;;;14.20;65.10;;;;;;5050340;28;19916;-78
2022/05/06 05:59:54;;;;;;;;;;;14.10;64.50;;;;;;5044602;28;20361;-80
2022/05/06 06:02:20;;;;;;;;;;;13.80;64.30;;;;;;5042948;28;19921;-79
2022/05/06 06:04:45;;;;;;;;;;;13.80;64.70;;;;;;5033944;28;19951;-80
2022/05/06 06:07:11;;;;;;;;;;;13.70;64.80;;;;;;5045580;28;20080;-79
2022/05/06 06:09:37;;;;;;;;;;;14.00;63.90;;;;;;5049746;28;19917;-80
2022/05/06 06:12:02;;;;;;;;;;;14.30;62.80;;;;;;5044410;28;19947;-80
2022/05/06 06:14:28;;;;;;;;;;;14.90;61.10;;;;;;5041144;28;19909;-80
2022/05/06 06:16:53;;;;;;;;;;;15.00;59.90;;;;;;5051402;28;19913;-80
2022/05/06 06:19:19;;;;;;;;;;;15.10;59.40;;;;;;5029508;22;19935;-79
2022/05/06 06:21:45;;;;;;;;;;;15.40;59.40;;;;;;5008548;28;20066;-80
2022/05/06 06:24:10;;;;;;;;;;;15.40;59.40;;;;;;5010832;28;19913;-80
2022/05/06 06:26:36;;;;;;;;;;;15.10;60.10;;;;;;5026774;28;20008;-80
2022/05/06 06:29:05;;;;;;;;;;;14.80;61.80;;;;;;5029625;28;19913;-81
2022/05/06 06:31:32;;;;;;;;;;;14.80;61.30;;;;;;5027034;28;19913;-79
2022/05/06 06:33:57;;;;;;;;;;;14.60;61.40;;;;;;5008046;28;20007;-80
2022/05/06 06:36:24;;;;;;;;;;;14.30;62.50;;;;;;5029639;28;20040;-79
2022/05/06 06:38:49;;;;;;;;;;;14.30;63.00;;;;;;5020890;28;20391;-82
2022/05/06 06:41:15;;;;;;;;;;;14.30;64.00;;;;;;5028482;28;19917;-80
2022/05/06 06:43:41;;;;;;;;;;;14.20;64.10;;;;;;5024596;28;19993;-79
2022/05/06 06:46:07;;;;;;;;;;;14.20;65.70;;;;;;5029449;28;19909;-80
2022/05/06 06:48:32;;;;;;;;;;;14.20;64.20;;;;;;5021750;28;19956;-80
2022/05/06 06:50:58;;;;;;;;;;;14.40;63.80;;;;;;5010689;28;19928;-79
2022/05/06 06:53:24;;;;;;;;;;;14.50;63.60;;;;;;5027211;28;19917;-80
2022/05/06 06:55:50;;;;;;;;;;;14.70;64.20;;;;;;5028744;28;20286;-78
2022/05/06 06:58:15;;;;;;;;;;;14.80;63.50;;;;;;5021403;28;20076;-78
2022/05/06 07:00:44;;;;;;;;;;;14.90;63.30;;;;;;5027864;28;19920;-78
2022/05/06 07:03:10;;;;;;;;;;;14.80;63.30;;;;;;5016387;28;19920;-77
2022/05/06 07:05:37;;;;;;;;;;;14.80;63.70;;;;;;5025753;28;21559;-78
2022/05/06 07:13:32;;;;;;;;;;;14.70;63.50;;;;;;5031254;28;19920;-79
2022/05/06 07:15:58;;;;;;;;;;;14.80;63.30;;;;;;5010178;28;19910;-78
2022/05/06 07:18:23;;;;;;;;;;;15.00;61.50;;;;;;5024889;28;20008;-78
2022/05/06 07:20:49;;;;;;;;;;;15.20;60.80;;;;;;5031230;28;19925;-79
2022/05/06 07:23:14;;;;;;;;;;;15.20;60.20;;;;;;5026121;28;19925;-78
2022/05/06 07:25:40;;;;;;;;;;;15.60;58.90;;;;;;5030990;28;20293;-77
2022/05/06 07:28:06;;;;;;;;;;;15.80;58.10;;;;;;5028481;28;20017;-78
2022/05/06 07:30:32;;;;;;;;;;;15.60;58.00;;;;;;5011140;28;19913;-78
2022/05/06 07:32:58;;;;;;;;;;;15.70;57.00;;;;;;5022434;28;19959;-78
2022/05/06 07:35:24;;;;;;;;;;;15.80;57.30;;;;;;5004282;28;19917;-81
2022/05/06 07:37:49;;;;;;;;;;;15.80;56.30;;;;;;5008525;28;20444;-78
2022/05/06 07:40:15;;;;;;;;;;;15.80;56.80;;;;;;5022322;28;20340;-81
2022/05/06 07:42:43;;;;;;;;;;;15.80;57.30;;;;;;5023530;28;19917;-78
2022/05/06 07:45:11;;;;;;;;;;;15.90;57.50;;;;;;5013125;28;19925;-78
2022/05/06 07:47:37;;;;;;;;;;;16.00;55.90;;;;;;5015971;28;19914;-78
2022/05/06 07:50:02;;;;;;;;;;;16.00;56.10;;;;;;5022955;28;19959;-78
2022/05/06 07:52:28;;;;;;;;;;;16.00;57.10;;;;;;5028557;28;20023;-78
2022/05/06 07:54:53;;;;;;;;;;;16.10;57.00;;;;;;5032444;28;19913;-78
2022/05/06 07:57:19;;;;;;;;;;;16.20;56.70;;;;;;5013773;28;19917;-78
2022/05/06 07:59:44;;;;;;;;;;;16.10;57.80;;;;;;5027027;28;19927;-77
2022/05/06 08:04:54;;;;;;;;;;;16.30;56.50;;;;;;5027570;28;19951;-79
2022/05/06 08:07:19;;;;;;;;;;;16.50;58.10;;;;;;5033806;28;20424;-78
2022/05/06 08:09:45;;;;;;;;;;;16.60;57.70;;;;;;5017700;28;20439;-78
2022/05/06 08:12:11;;;;;;;;;;;16.50;55.00;;;;;;5032346;28;19917;-79
2022/05/06 08:14:36;;;;;;;;;;;16.50;53.10;;;;;;5014248;28;19913;-79
2022/05/06 08:17:02;;;;;;;;;;;16.40;53.90;;;;;;5031324;28;19948;-78
2022/05/06 08:19:28;;;;;;;;;;;16.60;53.60;;;;;;5034954;28;19975;-78
2022/05/06 08:21:54;;;;;;;;;;;16.80;52.90;;;;;;5032373;28;19921;-78
2022/05/06 08:24:20;;;;;;;;;;;16.60;54.00;;;;;;5015173;28;19921;-78
2022/05/06 08:26:46;;;;;;;;;;;16.50;53.80;;;;;;5033616;28;20389;-78
2022/05/06 08:29:11;;;;;;;;;;;16.50;52.90;;;;;;5015160;28;20000;-78
2022/05/06 08:31:38;;;;;;;;;;;16.80;52.70;;;;;;5029365;28;19999;-78
2022/05/06 08:34:06;;;;;;;;;;;16.90;52.50;;;;;;5030781;28;20027;-78
2022/05/06 08:36:32;;;;;;;;;;;16.90;52.10;;;;;;5032790;28;19928;-78
2022/05/06 08:38:57;;;;;;;;;;;17.10;52.00;;;;;;5031436;28;19913;-78
2022/05/06 08:41:23;;;;;;;;;;;16.90;52.80;;;;;;5031167;28;19923;-78
2022/05/06 08:43:49;;;;;;;;;;;16.80;54.20;;;;;;5032249;28;19916;-78
2022/05/06 08:51:45;;;;;;;;;;;17.10;52.40;;;;;;5031453;28;20013;-76
2022/05/06 08:54:11;;;;;;;;;;;17.10;52.30;;;;;;5025401;28;19991;-77
2022/05/06 08:56:36;;;;;;;;;;;17.20;51.50;;;;;;5006845;28;19913;-76
2022/05/06 08:59:02;;;;;;;;;;;17.50;52.40;;;;;;5012453;28;19928;-78
2022/05/06 09:01:27;;;;;;;;;;;17.60;52.40;;;;;;5029362;28;19917;-83
2022/05/06 09:03:55;;;;;;;;;;;17.70;51.30;;;;;;5034871;28;20377;-82
2022/05/06 09:06:24;;;;;;;;;;;17.60;51.60;;;;;;5031776;28;20319;-81
2022/05/06 09:08:51;;;;;;;;;;;17.60;50.90;;;;;;5016634;28;19913;-83
2022/05/06 09:11:17;;;;;;;;;;;17.60;51.40;;;;;;5035066;28;20397;-82
2022/05/06 09:13:48;;;;;;;;;;;17.50;54.30;;;;;;5018573;28;19917;-80
2022/05/06 09:19:11;;;;;;;;;;;17.80;52.20;;;;;;5028752;28;19970;-80
2022/05/06 09:21:38;;;;;;;;;;;18.00;50.50;;;;;;5035802;28;19913;-80
2022/05/06 09:24:19;;;;;;;;;;;17.80;51.20;;;;;;5032474;28;19913;-80
2022/05/06 09:26:57;;;;;;;;;;;17.80;51.10;;;;;;5034884;28;19947;-82
2022/05/06 09:29:27;;;;;;;;;;;18.00;50.80;;;;;;5026422;28;19966;-85
2022/05/06 09:31:54;;;;;;;;;;;17.80;51.70;;;;;;5014642;28;19928;-85
2022/05/06 09:34:25;;;;;;;;;;;17.90;52.40;;;;;;5012660;28;19924;-84
2022/05/06 09:36:51;;;;;;;;;;;17.80;53.30;;;;;;5014258;28;19920;-85
2022/05/06 09:39:16;;;;;;;;;;;18.00;51.80;;;;;;5033006;28;19918;-85
2022/05/06 09:41:42;;;;;;;;;;;18.10;50.40;;;;;;5020374;28;19919;-85
2022/05/06 09:44:10;;;;;;;;;;;18.10;50.60;;;;;;5034245;28;19971;-82
2022/05/06 09:46:36;;;;;;;;;;;18.20;50.60;;;;;;5015317;28;19928;-84
2022/05/06 09:49:02;;;;;;;;;;;18.50;50.00;;;;;;5022802;28;19901;-84
2022/05/06 09:51:29;;;;;;;;;;;18.50;50.60;;;;;;5024024;28;19920;-85
2022/05/06 09:53:57;;;;;;;;;;;18.50;50.30;;;;;;5039729;28;19913;-84
2022/05/06 09:56:24;;;;;;;;;;;18.60;48.70;;;;;;5018361;28;20297;-84
2022/05/06 09:58:53;;;;;;;;;;;18.60;48.60;;;;;;5041338;28;19925;-85
2022/05/06 10:01:18;;;;;;;;;;;18.60;49.30;;;;;;5035145;28;19917;-85
2022/05/06 10:03:44;;;;;;;;;;;18.60;48.50;;;;;;5015238;28;19927;-85
2022/05/06 10:06:10;;;;;;;;;;;18.60;49.40;;;;;;5033724;28;19913;-84
2022/05/06 10:08:37;;;;;;;;;;;18.60;50.00;;;;;;5033120;28;19968;-85
2022/05/06 10:11:04;;;;;;;;;;;18.90;48.50;;;;;;5018420;28;19948;-86
2022/05/06 10:13:30;;;;;;;;;;;19.00;48.90;;;;;;5032897;28;19932;-86
2022/05/06 10:15:56;;;;;;;;;;;18.80;50.40;;;;;;5013438;28;20334;-82
2022/05/06 10:18:42;;;;;;;;;;;19.00;51.00;;;;;;5005750;28;19971;-82
2022/05/06 10:21:08;;;;;;;;;;;19.10;48.10;;;;;;5011156;28;20337;-82
2022/05/06 10:23:47;;;;;;;;;;;19.10;48.40;;;;;;5030252;28;19913;-81
2022/05/06 10:26:32;;;;;;;;;;;19.00;48.60;;;;;;5031927;28;20584;-81
2022/05/06 10:34:29;;;;;;;;;;;19.00;48.50;;;;;;5019234;28;19978;-81
2022/05/06 10:36:55;;;;;;;;;;;19.10;48.90;;;;;;5026524;28;20021;-81
2022/05/06 10:39:21;;;;;;;;;;;18.90;49.70;;;;;;5028518;28;19922;-80
2022/05/06 10:42:06;;;;;;;;;;;18.90;48.90;;;;;;4998504;28;19923;-81
2022/05/06 10:44:49;;;;;;;;;;;18.90;49.80;;;;;;5005036;28;19923;-82
2022/05/06 10:47:20;;;;;;;;;;;19.10;49.60;;;;;;5035122;28;19917;-82
2022/05/06 10:49:46;;;;;;;;;;;19.20;49.40;;;;;;5020472;28;19975;-82
2022/05/06 10:52:28;;;;;;;;;;;19.40;48.60;;;;;;5027865;28;19921;-83
2022/05/06 10:55:01;;;;;;;;;;;19.60;47.60;;;;;;5027715;28;19916;-80
2022/05/06 10:57:28;;;;;;;;;;;19.80;47.10;;;;;;5034133;28;19919;-82
2022/05/06 10:59:58;;;;;;;;;;;20.10;46.10;;;;;;5040040;28;19917;-78
2022/05/06 11:02:25;;;;;;;;;;;20.40;47.20;;;;;;5006888;28;19913;-79
2022/05/06 11:05:01;;;;;;;;;;;20.60;45.50;;;;;;5033431;28;19913;-80
2022/05/06 11:07:27;;;;;;;;;;;20.70;45.20;;;;;;5008778;28;19913;-77
2022/05/06 11:09:53;;;;;;;;;;;20.60;45.10;;;;;;5004769;28;20349;-80
2022/05/06 11:12:33;;;;;;;;;;;20.60;46.10;;;;;;5008037;28;19913;-79
2022/05/06 11:14:59;;;;;;;;;;;20.70;46.60;;;;;;5025413;28;19913;-78
2022/05/06 11:17:25;;;;;;;;;;;20.70;46.40;;;;;;5021421;28;20625;-79
2022/05/06 11:19:51;;;;;;;;;;;20.60;46.80;;;;;;5056285;28;19921;-80
2022/05/06 11:22:16;;;;;;;;;;;20.50;46.50;;;;;;5027103;28;19921;-77
2022/05/06 11:24:43;;;;;;;;;;;20.40;47.00;;;;;;5020145;28;19921;-79
2022/05/06 11:27:19;;;;;;;;;;;20.20;47.00;;;;;;5041542;28;19940;-78
2022/05/06 11:30:03;;;;;;;;;;;20.10;47.30;;;;;;5028275;28;20591;-78
2022/05/06 11:32:29;;;;;;;;;;;19.80;47.80;;;;;;5021513;28;20000;-77
2022/05/06 11:34:57;;;;;;;;;;;19.80;47.70;;;;;;5007287;28;20005;-79
2022/05/06 11:37:24;;;;;;;;;;;19.90;46.80;;;;;;5006070;28;19924;-80
2022/05/06 11:39:50;;;;;;;;;;;19.90;47.00;;;;;;5010226;28;19913;-81
2022/05/06 11:42:18;;;;;;;;;;;19.80;47.20;;;;;;5026768;28;19972;-81
2022/05/06 11:47:28;;;;;;;;;;;19.70;44.50;;;;;;5029425;28;19936;-82
2022/05/06 11:49:53;;;;;;;;;;;19.80;44.40;;;;;;5014529;28;20385;-84
2022/05/06 11:52:19;;;;;;;;;;;20.00;43.80;;;;;;5010059;28;19921;-82
2022/05/06 11:54:44;;;;;;;;;;;20.10;43.90;;;;;;5015632;28;19913;-82
2022/05/06 11:57:12;;;;;;;;;;;20.10;45.20;;;;;;5008818;28;20314;-82
2022/05/06 11:59:38;;;;;;;;;;;20.50;44.00;;;;;;5031980;28;19924;-83
2022/05/06 12:02:07;;;;;;;;;;;20.70;42.60;;;;;;5044891;28;19917;-82
2022/05/06 12:04:33;;;;;;;;;;;21.10;41.50;;;;;;5039480;28;19924;-82
2022/05/06 12:06:59;;;;;;;;;;;21.30;41.90;;;;;;5016048;28;19920;-82
2022/05/06 12:09:24;;;;;;;;;;;21.60;41.70;;;;;;5013947;28;20519;-82
2022/05/06 12:12:04;;;;;;;;;;;21.70;41.50;;;;;;5014654;28;20416;-83
2022/05/06 12:14:29;;;;;;;;;;;21.50;43.20;;;;;;5024823;28;19913;-82
2022/05/06 12:16:56;;;;;;;;;;;21.50;42.60;;;;;;5013314;28;19974;-83
2022/05/06 12:19:41;;;;;;;;;;;21.10;44.30;;;;;;5029998;28;19921;-83
2022/05/06 12:22:21;;;;;;;;;;;20.70;45.50;;;;;;5034852;28;19917;-84
2022/05/06 12:24:48;;;;;;;;;;;20.60;45.30;;;;;;5011020;28;19913;-82
2022/05/06 12:27:24;;;;;;;;;;;20.60;45.50;;;;;;5031615;28;19920;-84
2022/05/06 12:29:49;;;;;;;;;;;20.60;44.70;;;;;;5001532;28;19921;-84
2022/05/06 12:32:15;;;;;;;;;;;20.60;45.00;;;;;;5029015;28;19917;-85
2022/05/06 12:34:40;;;;;;;;;;;20.60;45.00;;;;;;5020382;28;20011;-83
2022/05/06 12:37:13;;;;;;;;;;;20.60;45.20;;;;;;5014693;28;19920;-80
2022/05/06 12:39:45;;;;;;;;;;;20.40;45.60;;;;;;5019886;28;20336;-81
2022/05/06 12:42:12;;;;;;;;;;;20.50;46.30;;;;;;5027075;28;19924;-81
2022/05/06 12:44:38;;;;;;;;;;;20.70;45.90;;;;;;5032357;28;20311;-79
2022/05/06 12:50:02;;;;;;;;;;;20.90;45.50;;;;;;5033541;28;19963;-78
2022/05/06 12:52:28;;;;;;;;;;;20.90;45.30;;;;;;5014259;28;19952;-83
2022/05/06 12:54:53;;;;;;;;;;;20.90;45.60;;;;;;5016470;28;19913;-84
2022/05/06 12:57:19;;;;;;;;;;;20.90;45.40;;;;;;5015891;28;20601;-84
2022/05/06 12:59:44;;;;;;;;;;;20.80;45.70;;;;;;5014534;28;19921;-81
2022/05/06 13:02:10;;;;;;;;;;;20.80;45.90;;;;;;5015177;28;19971;-82
2022/05/06 13:04:36;;;;;;;;;;;20.80;45.80;;;;;;5040088;28;19913;-84
2022/05/06 13:07:02;;;;;;;;;;;20.70;45.30;;;;;;5041392;28;19913;-82
2022/05/06 13:09:27;;;;;;;;;;;20.70;45.80;;;;;;5012462;28;20624;-82
2022/05/06 13:11:53;;;;;;;;;;;20.60;45.40;;;;;;5031835;28;19913;-82
2022/05/06 13:14:21;;;;;;;;;;;20.60;45.60;;;;;;5015224;28;19928;-84
2022/05/06 13:16:47;;;;;;;;;;;20.70;45.90;;;;;;5033346;28;19913;-83
2022/05/06 13:19:13;;;;;;;;;;;21.00;45.00;;;;;;5024481;28;20322;-83
2022/05/06 13:21:38;;;;;;;;;;;21.30;44.90;;;;;;5018419;28;20007;-84
2022/05/06 13:24:04;;;;;;;;;;;21.50;44.20;;;;;;5028628;28;20373;-85
2022/05/06 13:26:30;;;;;;;;;;;21.80;43.50;;;;;;5008982;28;19913;-82
2022/05/06 13:28:55;;;;;;;;;;;22.10;41.70;;;;;;5014144;28;19922;-82
2022/05/06 13:31:21;;;;;;;;;;;21.90;42.60;;;;;;4999903;28;19917;-82
2022/05/06 13:33:47;;;;;;;;;;;22.10;43.50;;;;;;5021490;28;19928;-79
2022/05/06 13:36:13;;;;;;;;;;;22.30;42.30;;;;;;5001844;28;20397;-82
2022/05/06 13:38:39;;;;;;;;;;;22.30;41.90;;;;;;5025247;28;19913;-85
2022/05/06 13:41:04;;;;;;;;;;;22.20;41.90;;;;;;5011273;28;19924;-82
2022/05/06 13:43:29;;;;;;;;;;;22.20;41.20;;;;;;5028654;28;20337;-82
2022/05/06 13:45:55;;;;;;;;;;;22.10;42.10;;;;;;5031461;28;19917;-85
2022/05/06 13:48:21;;;;;;;;;;;22.20;41.70;;;;;;5010716;28;19956;-83
2022/05/06 13:50:46;;;;;;;;;;;22.30;41.50;;;;;;5012070;28;20369;-85
2022/05/06 13:53:12;;;;;;;;;;;22.30;41.50;;;;;;5023213;28;19920;-84
2022/05/06 14:01:06;;;;;;;;;;;22.40;41.00;;;;;;5031188;28;19979;-84
2022/05/06 14:03:32;;;;;;;;;;;22.10;41.40;;;;;;5028860;28;20405;-83
2022/05/06 14:05:57;;;;;;;;;;;22.00;42.20;;;;;;5009291;28;20357;-84
2022/05/06 14:08:23;;;;;;;;;;;21.90;41.70;;;;;;5017663;28;20030;-84
2022/05/06 14:10:48;;;;;;;;;;;21.80;42.30;;;;;;5026091;28;20369;-84
2022/05/06 14:13:14;;;;;;;;;;;21.60;43.70;;;;;;5002082;28;19909;-84
2022/05/06 14:15:40;;;;;;;;;;;21.30;43.00;;;;;;5005955;28;19909;-85
2022/05/06 14:18:06;;;;;;;;;;;21.30;43.10;;;;;;5023249;28;19918;-85
2022/05/06 14:20:31;;;;;;;;;;;21.40;42.90;;;;;;5035364;28;19990;-84
2022/05/06 14:22:57;;;;;;;;;;;21.50;42.90;;;;;;5021600;28;19920;-85
2022/05/06 14:25:22;;;;;;;;;;;21.50;43.10;;;;;;5016429;28;20115;-84
2022/05/06 14:27:48;;;;;;;;;;;21.50;42.60;;;;;;5034739;28;19909;-84
2022/05/06 14:30:14;;;;;;;;;;;21.40;42.90;;;;;;5017413;28;19958;-84
2022/05/06 14:32:40;;;;;;;;;;;21.30;43.40;;;;;;5018979;28;20430;-84
2022/05/06 14:35:21;;;;;;;;;;;21.10;44.50;;;;;;5012920;28;20352;-84
2022/05/06 14:37:48;;;;;;;;;;;21.10;43.20;;;;;;5010019;28;20070;-84
2022/05/06 14:40:14;;;;;;;;;;;21.00;44.10;;;;;;5047546;28;20015;-84
2022/05/06 14:42:40;;;;;;;;;;;20.80;44.20;;;;;;5033693;28;20020;-84
2022/05/06 14:45:06;;;;;;;;;;;20.70;43.90;;;;;;5031619;28;19913;-83
2022/05/06 14:47:31;;;;;;;;;;;20.70;44.10;;;;;;5014658;28;20000;-83
2022/05/06 14:49:58;;;;;;;;;;;20.60;44.90;;;;;;5029895;28;19971;-84
2022/05/06 14:52:24;;;;;;;;;;;20.60;45.70;;;;;;5011816;28;20381;-84
2022/05/06 14:54:52;;;;;;;;;;;20.80;44.50;;;;;;5011877;28;19913;-83
2022/05/06 14:57:18;;;;;;;;;;;20.70;43.90;;;;;;5031583;28;19944;-82
2022/05/06 14:59:44;;;;;;;;;;;20.50;44.30;;;;;;5026216;28;19914;-81
2022/05/06 15:02:09;;;;;;;;;;;20.60;44.00;;;;;;5027624;28;19925;-82
2022/05/06 15:04:35;;;;;;;;;;;20.50;45.10;;;;;;5015958;28;19917;-82